Pagina principală
METAR-TAF:

METAR-TAF

Aeroporturi :

Concordia, Kansas, Statele Unite ale Americii

Latitudine: 39-33-05N, longitudine: 097-39-02W, elevație: 453 m

Observații meteo curente

Raportul a fost făcut în urmă cu 39 de minute, la 13:55 UTC
Vânt 13 kt de la Sud/Sud-vest cu rafale de până la 21 kt
Temperatură 24°C
Umiditate 69%
Presiune 1014 hPa
Vizibilitate: 16.1 km
Cer senin

METAR: KCNK 121355Z AUTO 21013G21KT 10SM CLR 24/18 A2994 RMK AO2 SLP123 T02440178

Ora: 09:34 (14:34 UTC)


TAF: lipsă

Observații și prognoze meteo pentru peste 4.000 de aeroporturi (rapoarte METAR și TAF).

Stațiile disponibile sunt reprezentate pe hartă prin puncte galbene și roșii.

Țineți indicatorul mouse-ului pe punctul dorit pentru a vedea denumirea stației.

Apoi, faceți clic pentru a vedea observațiile și prognozele meteorologice.

Pentru a schimba harta: Pentru mărire, faceți clic pe butoanele verzi cu cruce neagră; pentru micșorare, pe butonul verde cu o liniuță; pentru hărți învecinate, pe săgețile verzi.


METAR-TAF: